Gulf - Magdalen - eastern half: Past 24 Hour Conditions

 

Blanc-Sablon Airport

03:00 AM AST 21 September 2014
This table is a summary of hourly weather conditions for the past 24 hours.
Date / Time
(AST)
Wind(knots) Conditions Visibility(km) Pressure(kPa) Air tempC) Relative humidity(%) Dew pointC)
21 September 2014
3:00 WSW 16 gust 21 Fog 8 100.7 9 93 8
2:00 WSW 16 gust 23 Fog 8 100.7 9 93 8
1:00 WSW 15 gust 21 Fog 8 100.7 9 93 8
0:00 WSW 19 gust 25 Fog 8 100.7 9 93 8
20 September 2014
23:00 WSW 23 gust 29 Fog 8 100.7 10 92 8
22:00 WSW 25 gust 32 Fog 8 100.7 9 90 8
21:00 WSW 26 gust 33 Light Rain 8 100.7 9 92 8
20:00 WSW 28 gust 41 Light Rain 8 100.7 10 84 7
19:00 WSW 31 gust 44 Light Rain 8 100.8 9 86 7
18:00 WSW 28 gust 41 Fog 6 100.7 9 86 7
17:00 WSW 28 gust 36 Cloudy 13 100.8 10 72 5
16:00 WSW 32 gust 40 Cloudy 16 100.8 10 70 5
15:00 WSW 27 gust 44 Cloudy 24 100.8 10 67 5
14:00 WSW 28 gust 45 Cloudy 24 100.8 10 65 4
13:00 WSW 33 gust 44 Cloudy 24 100.9 10 66 4
12:00 WSW 28 gust 40 Mostly Cloudy 24 101.0 11 65 4
11:00 WSW 31 gust 41 Cloudy 24 101.1 11 61 4
10:00 WSW 28 gust 36 Partly Cloudy 24 101.2 10 59 2
9:00 WSW 26 gust 33 Mainly Sunny 24 101.3 9 68 4
8:00 W 18 gust 27 Partly Cloudy 24 101.4 8 72 4
7:00 W 17 gust 26 Cloudy 24 101.5 7 74 3
6:00 W 18 gust 24 Mostly Cloudy 24 101.6 6 74 2
5:00 W 17 gust 25 Cloudy 24 101.6 5 71 1
4:00 W 11 gust 19 Cloudy 24 101.6 5 77 1
3:00 W 12 gust 18 Mainly Clear 24 101.6 5 77 1
 
Map of Atlantic - Newfoundland marine weather areas Southwestern Grand Banks - 44138 Banquereau - 44139 Tail of the Bank - 44140 Nickerson Bank - 44251 Northeast Burgeo Bank - 44255 Blanc-Sablon Airport Cap Whittle Chevery Natashquan Airport Heath Point Miscou Island Grand Étang Ingonish Beach North Mountain St.Paul Island J.A. Douglas McCurdy Sydney Airport Charlottetown Airport East Point North Cape Argentia Bonavista Burgeo Cape Race Corner Brook Daniel's Harbour Englee Ferolle Point La Scie Port aux Basques Rocky Harbour Sagona Island St. Anthony Airport St. John's Int'l Airport St. Lawrence Stephenville Airport Twillingate Winterland Wreckhouse Cartwright Airport Mary's Harbour Grates Cove Pool's Island Marticot Island Long Pond Îles de la Madeleine Airport
Legend: buoyBuoy land stationLand Station